Time;durP1;ratioP1;P1;durP2;ratioP2;P2;SDS_P1;SDS_P2;PMS_P1;PMS_P2;Temp;Humidity;BMP_temperature;BMP_pressure;BME280_temperature;BME280_humidity;BME280_pressure;Samples;Min_cycle;Max_cycle;Signal;HPM_P1;HPM_P2
2021/12/13 00:01:22;;;;;;;;;;;8.00;57.80;;;;;;5053043;28;19934;-66
2021/12/13 00:03:50;;;;;;;;;;;8.10;57.90;;;;;;5052960;28;19909;-66
2021/12/13 00:06:18;;;;;;;;;;;8.00;57.90;;;;;;5052839;28;19916;-66
2021/12/13 00:08:47;;;;;;;;;;;8.00;57.90;;;;;;5052944;28;20576;-66
2021/12/13 00:11:15;;;;;;;;;;;8.00;58.00;;;;;;5052922;28;19931;-66
2021/12/13 00:13:46;;;;;;;;;;;8.10;58.10;;;;;;5052929;28;19909;-67
2021/12/13 00:16:12;;;;;;;;;;;8.00;58.20;;;;;;5052697;28;19921;-66
2021/12/13 00:18:46;;;;;;;;;;;8.00;58.20;;;;;;5052839;28;19947;-67
2021/12/13 00:21:22;;;;;;;;;;;8.00;58.30;;;;;;5052243;28;19912;-66
2021/12/13 00:23:54;;;;;;;;;;;8.00;58.30;;;;;;5052703;28;19916;-66
2021/12/13 00:26:21;;;;;;;;;;;8.00;58.40;;;;;;5052696;28;19909;-66
2021/12/13 00:28:47;;;;;;;;;;;8.00;58.50;;;;;;5052581;28;19916;-66
2021/12/13 00:31:23;;;;;;;;;;;8.00;58.50;;;;;;5052604;28;19913;-66
2021/12/13 00:33:52;;;;;;;;;;;8.00;58.60;;;;;;5052406;28;19909;-66
2021/12/13 00:36:24;;;;;;;;;;;8.00;58.70;;;;;;5052463;28;19909;-66
2021/12/13 00:38:53;;;;;;;;;;;8.00;58.70;;;;;;5052398;28;20286;-66
2021/12/13 00:41:22;;;;;;;;;;;8.00;58.80;;;;;;5052252;28;19999;-66
2021/12/13 00:43:51;;;;;;;;;;;8.00;58.90;;;;;;5052322;28;20306;-67
2021/12/13 00:46:17;;;;;;;;;;;8.00;58.90;;;;;;5052212;28;19959;-67
2021/12/13 00:48:45;;;;;;;;;;;8.00;59.00;;;;;;5052125;28;20355;-66
2021/12/13 00:51:30;;;;;;;;;;;8.00;59.10;;;;;;5050781;28;19915;-66
2021/12/13 00:54:00;;;;;;;;;;;8.00;59.20;;;;;;5052019;28;19913;-66
2021/12/13 00:56:44;;;;;;;;;;;8.00;59.20;;;;;;5052277;28;19909;-66
2021/12/13 00:59:12;;;;;;;;;;;8.00;59.30;;;;;;5050731;28;19913;-66
2021/12/13 01:01:38;;;;;;;;;;;8.00;59.30;;;;;;5051994;28;19947;-66
2021/12/13 01:04:08;;;;;;;;;;;8.00;59.40;;;;;;5052154;28;20062;-66
2021/12/13 01:06:53;;;;;;;;;;;8.00;59.60;;;;;;5051992;28;19917;-66
2021/12/13 01:09:38;;;;;;;;;;;7.90;59.60;;;;;;5051927;28;19916;-66
2021/12/13 01:12:05;;;;;;;;;;;7.90;59.70;;;;;;5052073;28;19951;-66
2021/12/13 01:14:39;;;;;;;;;;;7.90;59.80;;;;;;5052050;28;19909;-66
2021/12/13 01:17:14;;;;;;;;;;;7.90;59.90;;;;;;5051991;28;19950;-66
2021/12/13 01:19:54;;;;;;;;;;;7.90;60.00;;;;;;5052018;28;19920;-66
2021/12/13 01:28:08;;;;;;;;;;;7.90;60.10;;;;;;5052042;28;20293;-67
2021/12/13 01:30:35;;;;;;;;;;;7.90;60.20;;;;;;5051652;28;19913;-66
2021/12/13 01:33:03;;;;;;;;;;;7.90;60.20;;;;;;5055114;28;19909;-66
2021/12/13 01:35:30;;;;;;;;;;;7.90;60.30;;;;;;5055896;28;20331;-67
2021/12/13 01:38:02;;;;;;;;;;;7.90;60.40;;;;;;5055895;28;20011;-67
2021/12/13 01:40:29;;;;;;;;;;;7.90;60.50;;;;;;5055734;28;19924;-67
2021/12/13 01:43:15;;;;;;;;;;;7.90;60.50;;;;;;5055628;28;19916;-67
2021/12/13 01:45:42;;;;;;;;;;;7.80;60.50;;;;;;5055294;28;19909;-67
2021/12/13 01:48:14;;;;;;;;;;;7.90;60.70;;;;;;5055650;28;19912;-67
2021/12/13 01:50:48;;;;;;;;;;;7.90;60.70;;;;;;5055760;28;20267;-67
2021/12/13 01:53:15;;;;;;;;;;;7.90;60.70;;;;;;5055433;28;20287;-67
2021/12/13 01:55:46;;;;;;;;;;;7.90;60.70;;;;;;5055427;28;19909;-66
2021/12/13 02:01:09;;;;;;;;;;;7.90;60.80;;;;;;5055212;28;19927;-67
2021/12/13 02:03:57;;;;;;;;;;;7.90;60.80;;;;;;5055214;28;20254;-67
2021/12/13 02:06:26;;;;;;;;;;;7.90;61.70;;;;;;5054520;28;19908;-68
2021/12/13 02:08:54;;;;;;;;;;;7.90;60.90;;;;;;5055339;28;19916;-67
2021/12/13 02:11:21;;;;;;;;;;;7.90;60.90;;;;;;5053679;28;19909;-67
2021/12/13 02:14:05;;;;;;;;;;;7.90;60.90;;;;;;5055000;28;19915;-66
2021/12/13 02:19:32;;;;;;;;;;;7.90;60.90;;;;;;5054806;28;19970;-67
2021/12/13 02:22:16;;;;;;;;;;;7.90;60.90;;;;;;5054931;28;20366;-67
2021/12/13 02:24:42;;;;;;;;;;;7.90;61.00;;;;;;5054833;28;19995;-67
2021/12/13 02:27:07;;;;;;;;;;;7.90;61.00;;;;;;5053587;28;19958;-67
2021/12/13 02:29:36;;;;;;;;;;;8.00;61.20;;;;;;5054875;28;19920;-67
2021/12/13 02:32:07;;;;;;;;;;;8.00;61.30;;;;;;5054694;28;20003;-67
2021/12/13 02:34:35;;;;;;;;;;;8.00;61.30;;;;;;5054973;28;19913;-67
2021/12/13 02:37:01;;;;;;;;;;;8.00;61.30;;;;;;5054517;28;19955;-67
2021/12/13 02:39:29;;;;;;;;;;;8.00;61.40;;;;;;5054500;28;19909;-67
2021/12/13 02:41:56;;;;;;;;;;;8.00;61.40;;;;;;5054611;28;19932;-67
2021/12/13 02:44:42;;;;;;;;;;;8.00;61.40;;;;;;5057005;28;19961;-66
2021/12/13 02:47:11;;;;;;;;;;;8.00;61.40;;;;;;5053239;28;19944;-67
2021/12/13 02:49:38;;;;;;;;;;;8.10;61.60;;;;;;5054439;28;19908;-67
2021/12/13 02:52:07;;;;;;;;;;;8.00;61.50;;;;;;5054380;28;19909;-67
2021/12/13 02:54:36;;;;;;;;;;;8.00;61.50;;;;;;5054390;28;20007;-67
2021/12/13 02:57:07;;;;;;;;;;;8.00;61.40;;;;;;5054628;28;19913;-67
2021/12/13 02:59:34;;;;;;;;;;;8.00;61.40;;;;;;5054164;28;19921;-67
2021/12/13 03:02:05;;;;;;;;;;;8.00;61.40;;;;;;5054170;28;19971;-67
2021/12/13 03:04:32;;;;;;;;;;;8.00;61.50;;;;;;5054270;28;19908;-67
2021/12/13 03:07:00;;;;;;;;;;;8.00;61.50;;;;;;5054080;28;19999;-67
2021/12/13 03:09:27;;;;;;;;;;;8.00;61.70;;;;;;5054004;28;19911;-67
2021/12/13 03:11:53;;;;;;;;;;;8.00;61.70;;;;;;5054039;28;19909;-68
2021/12/13 03:14:22;;;;;;;;;;;8.00;61.80;;;;;;5053992;28;19912;-67
2021/12/13 03:16:51;;;;;;;;;;;8.00;61.90;;;;;;5053640;28;20361;-67
2021/12/13 03:19:37;;;;;;;;;;;8.00;61.90;;;;;;5054120;28;19961;-67
2021/12/13 03:22:21;;;;;;;;;;;8.00;61.90;;;;;;5052453;28;19996;-67
2021/12/13 03:24:49;;;;;;;;;;;8.00;62.00;;;;;;5053792;28;20278;-67
2021/12/13 03:27:15;;;;;;;;;;;8.00;61.90;;;;;;5053717;28;20343;-67
2021/12/13 03:29:53;;;;;;;;;;;8.10;62.00;;;;;;5053663;28;19944;-67
2021/12/13 03:32:20;;;;;;;;;;;8.10;62.00;;;;;;5053615;28;19959;-67
2021/12/13 03:34:59;;;;;;;;;;;8.00;61.90;;;;;;5053452;28;19916;-68
2021/12/13 03:37:25;;;;;;;;;;;8.10;62.00;;;;;;5053330;28;19909;-68
2021/12/13 03:39:53;;;;;;;;;;;8.00;61.90;;;;;;5053407;28;19962;-67
2021/12/13 03:42:26;;;;;;;;;;;8.10;62.10;;;;;;5053391;28;19966;-67
2021/12/13 03:44:54;;;;;;;;;;;8.10;62.10;;;;;;5053339;28;20360;-67
2021/12/13 03:47:26;;;;;;;;;;;8.10;62.10;;;;;;5053392;28;20328;-67
2021/12/13 03:49:53;;;;;;;;;;;8.10;62.10;;;;;;5053314;28;19916;-67
2021/12/13 03:52:21;;;;;;;;;;;8.10;62.10;;;;;;5053212;28;19912;-67
2021/12/13 03:54:48;;;;;;;;;;;8.10;62.10;;;;;;5052437;28;19913;-67
2021/12/13 03:57:17;;;;;;;;;;;8.10;62.10;;;;;;5053140;28;19909;-67
2021/12/13 03:59:44;;;;;;;;;;;8.10;62.20;;;;;;5052814;28;20358;-67
2021/12/13 04:02:16;;;;;;;;;;;8.10;62.10;;;;;;5053047;28;19909;-67
2021/12/13 04:05:03;;;;;;;;;;;8.10;62.20;;;;;;5053586;28;20274;-67
2021/12/13 04:07:31;;;;;;;;;;;8.10;62.10;;;;;;5052914;28;20139;-67
2021/12/13 04:09:58;;;;;;;;;;;8.10;62.20;;;;;;5052803;28;20003;-67
2021/12/13 04:12:29;;;;;;;;;;;8.10;62.20;;;;;;5052890;28;19958;-67
2021/12/13 04:15:01;;;;;;;;;;;8.20;62.30;;;;;;5052683;28;19908;-67
2021/12/13 04:17:43;;;;;;;;;;;8.20;62.30;;;;;;5053082;28;20016;-67
2021/12/13 04:20:11;;;;;;;;;;;8.20;62.30;;;;;;5052631;28;19920;-67
2021/12/13 04:22:38;;;;;;;;;;;8.20;62.30;;;;;;5052566;28;19916;-67
2021/12/13 04:25:09;;;;;;;;;;;8.20;63.10;;;;;;5052621;28;19909;-67
2021/12/13 04:27:55;;;;;;;;;;;8.20;62.30;;;;;;5052586;28;21058;-67
2021/12/13 04:30:30;;;;;;;;;;;8.20;62.30;;;;;;5051741;28;19944;-67
2021/12/13 04:32:57;;;;;;;;;;;8.30;62.40;;;;;;5052519;28;19909;-67
2021/12/13 04:35:23;;;;;;;;;;;8.30;62.30;;;;;;5052262;28;19919;-67
2021/12/13 04:37:51;;;;;;;;;;;8.30;62.40;;;;;;5052165;28;19912;-67
2021/12/13 04:40:21;;;;;;;;;;;8.30;62.40;;;;;;5052108;28;19920;-67
2021/12/13 04:42:53;;;;;;;;;;;8.40;62.40;;;;;;5052370;28;19909;-67
2021/12/13 04:45:20;;;;;;;;;;;8.40;62.50;;;;;;5052166;28;19909;-67
2021/12/13 04:48:07;;;;;;;;;;;8.40;62.50;;;;;;5052317;28;19909;-67
2021/12/13 04:50:36;;;;;;;;;;;8.50;62.40;;;;;;5052211;28;19908;-67
2021/12/13 04:53:02;;;;;;;;;;;8.50;62.40;;;;;;5052226;28;19915;-67
2021/12/13 04:55:35;;;;;;;;;;;8.50;62.40;;;;;;5052165;28;19996;-67
2021/12/13 04:58:04;;;;;;;;;;;8.50;62.30;;;;;;5052114;28;19986;-67
2021/12/13 05:00:31;;;;;;;;;;;8.50;62.30;;;;;;5051991;28;20365;-67
2021/12/13 05:02:59;;;;;;;;;;;8.50;62.30;;;;;;5052043;28;19909;-67
2021/12/13 05:05:26;;;;;;;;;;;8.60;62.40;;;;;;5051904;28;19909;-67
2021/12/13 05:07:52;;;;;;;;;;;8.60;62.40;;;;;;5051956;28;19965;-67
2021/12/13 05:10:18;;;;;;;;;;;8.60;62.40;;;;;;5052010;28;19908;-67
2021/12/13 05:13:02;;;;;;;;;;;8.60;62.40;;;;;;5051980;28;19912;-67
2021/12/13 05:15:28;;;;;;;;;;;8.60;62.40;;;;;;5051606;28;19970;-67
2021/12/13 05:17:55;;;;;;;;;;;8.60;62.40;;;;;;5051591;28;19947;-67
2021/12/13 05:20:22;;;;;;;;;;;8.60;62.40;;;;;;5051750;28;19985;-67
2021/12/13 05:22:53;;;;;;;;;;;8.60;62.40;;;;;;5051807;28;20271;-67
2021/12/13 05:25:29;;;;;;;;;;;8.60;62.40;;;;;;5051685;28;19905;-67
2021/12/13 05:28:00;;;;;;;;;;;8.70;62.40;;;;;;5051718;28;19986;-67
2021/12/13 05:30:26;;;;;;;;;;;8.70;62.40;;;;;;5051703;28;19927;-67
2021/12/13 05:32:54;;;;;;;;;;;8.70;62.40;;;;;;5051632;28;19909;-67
2021/12/13 05:35:26;;;;;;;;;;;8.70;62.30;;;;;;5051551;28;19912;-67
2021/12/13 05:37:54;;;;;;;;;;;8.70;62.30;;;;;;5051601;28;19909;-67
2021/12/13 05:40:44;;;;;;;;;;;8.70;62.30;;;;;;5051390;28;19913;-67
2021/12/13 05:43:19;;;;;;;;;;;8.70;62.30;;;;;;5051051;28;19990;-67
2021/12/13 05:45:50;;;;;;;;;;;8.70;62.30;;;;;;5051543;28;19905;-67
2021/12/13 05:48:45;;;;;;;;;;;8.70;62.20;;;;;;5051596;28;20054;-68
2021/12/13 05:51:29;;;;;;;;;;;8.70;62.30;;;;;;5050596;28;19909;-67
2021/12/13 05:54:04;;;;;;;;;;;8.70;62.30;;;;;;5051594;28;19951;-67
2021/12/13 05:56:38;;;;;;;;;;;8.70;62.30;;;;;;5051476;28;19909;-68
2021/12/13 05:59:11;;;;;;;;;;;8.70;62.30;;;;;;5051664;28;20270;-67
2021/12/13 06:01:54;;;;;;;;;;;8.60;62.20;;;;;;5051878;28;20358;-67
2021/12/13 06:04:23;;;;;;;;;;;8.60;62.30;;;;;;5051668;28;19909;-67
2021/12/13 06:06:50;;;;;;;;;;;8.60;62.30;;;;;;5051546;28;19909;-67
2021/12/13 06:09:34;;;;;;;;;;;8.60;62.40;;;;;;5051294;28;19955;-67
2021/12/13 06:12:04;;;;;;;;;;;8.60;62.40;;;;;;5051174;28;19909;-67
2021/12/13 06:14:29;;;;;;;;;;;8.60;62.50;;;;;;5051215;28;19920;-67
2021/12/13 06:17:03;;;;;;;;;;;8.60;62.50;;;;;;5051052;28;19925;-67
2021/12/13 06:19:33;;;;;;;;;;;8.60;62.60;;;;;;5053167;28;19916;-68
2021/12/13 06:21:59;;;;;;;;;;;8.60;62.60;;;;;;5053526;28;19909;-68
2021/12/13 06:24:27;;;;;;;;;;;8.60;62.60;;;;;;5054839;28;19936;-68
2021/12/13 06:27:07;;;;;;;;;;;8.60;62.60;;;;;;5054679;28;19915;-67
2021/12/13 06:29:48;;;;;;;;;;;8.60;62.70;;;;;;5054671;28;19913;-67
2021/12/13 06:32:20;;;;;;;;;;;8.60;62.70;;;;;;5054341;28;19909;-67
2021/12/13 06:34:46;;;;;;;;;;;8.60;62.70;;;;;;5054419;28;19963;-67
2021/12/13 06:37:12;;;;;;;;;;;8.60;62.70;;;;;;5054237;28;19916;-67
2021/12/13 06:39:37;;;;;;;;;;;8.60;62.70;;;;;;5054436;28;19916;-67
2021/12/13 06:42:04;;;;;;;;;;;8.60;62.80;;;;;;5054414;28;20443;-67
2021/12/13 06:44:34;;;;;;;;;;;8.60;62.80;;;;;;5054432;28;19908;-67
2021/12/13 06:47:02;;;;;;;;;;;8.60;62.90;;;;;;5054457;28;20000;-67
2021/12/13 06:49:42;;;;;;;;;;;8.50;62.90;;;;;;5054368;28;19958;-67
2021/12/13 06:52:11;;;;;;;;;;;8.50;62.80;;;;;;5054413;28;19909;-67
2021/12/13 06:54:41;;;;;;;;;;;8.60;63.00;;;;;;5054465;28;20130;-67
2021/12/13 06:57:09;;;;;;;;;;;8.50;63.00;;;;;;5054371;28;19916;-67
2021/12/13 06:59:37;;;;;;;;;;;8.50;63.10;;;;;;5054294;28;19919;-67
2021/12/13 07:02:02;;;;;;;;;;;8.50;63.10;;;;;;5054363;28;19909;-67
2021/12/13 07:04:36;;;;;;;;;;;8.50;63.10;;;;;;5054092;28;20397;-67
2021/12/13 07:07:11;;;;;;;;;;;8.50;63.10;;;;;;5053803;28;19909;-68
2021/12/13 07:09:38;;;;;;;;;;;8.50;63.20;;;;;;5053913;28;19915;-68
2021/12/13 07:12:10;;;;;;;;;;;8.50;63.20;;;;;;5054046;28;19960;-68
2021/12/13 07:14:38;;;;;;;;;;;8.50;63.20;;;;;;5054230;28;19952;-68
2021/12/13 07:17:14;;;;;;;;;;;8.60;63.20;;;;;;5053748;28;19921;-68
2021/12/13 07:19:40;;;;;;;;;;;8.60;63.20;;;;;;5053779;28;19916;-67
2021/12/13 07:22:07;;;;;;;;;;;8.60;63.30;;;;;;5053902;28;19909;-68
2021/12/13 07:24:43;;;;;;;;;;;8.60;63.30;;;;;;5053822;28;19913;-68
2021/12/13 07:27:11;;;;;;;;;;;8.60;63.40;;;;;;5053716;28;19909;-67
2021/12/13 07:29:37;;;;;;;;;;;8.60;63.30;;;;;;5052507;28;19958;-68
2021/12/13 07:32:11;;;;;;;;;;;8.60;63.30;;;;;;5053403;28;19913;-68
2021/12/13 07:34:52;;;;;;;;;;;8.70;63.40;;;;;;5053479;28;20432;-68
2021/12/13 07:37:18;;;;;;;;;;;8.70;63.50;;;;;;5053426;28;19943;-68
2021/12/13 07:39:44;;;;;;;;;;;8.70;63.40;;;;;;5053457;28;19916;-68
2021/12/13 07:42:11;;;;;;;;;;;8.70;63.40;;;;;;5053395;28;20385;-68
2021/12/13 07:44:39;;;;;;;;;;;8.70;63.30;;;;;;5053273;28;20381;-68
2021/12/13 07:47:12;;;;;;;;;;;8.70;63.30;;;;;;5053205;28;19909;-69
2021/12/13 07:49:42;;;;;;;;;;;8.70;63.30;;;;;;5053267;28;20285;-67
2021/12/13 07:52:08;;;;;;;;;;;8.80;63.50;;;;;;5053136;28;19931;-67
2021/12/13 07:54:38;;;;;;;;;;;8.80;63.50;;;;;;5053154;28;19908;-66
2021/12/13 07:57:12;;;;;;;;;;;8.80;63.40;;;;;;5053104;28;19932;-67
2021/12/13 07:59:38;;;;;;;;;;;8.80;63.40;;;;;;5052948;28;19919;-67
2021/12/13 08:02:09;;;;;;;;;;;8.80;63.40;;;;;;5052768;28;19995;-67
2021/12/13 08:04:35;;;;;;;;;;;8.80;63.40;;;;;;5052739;28;19913;-67
2021/12/13 08:07:21;;;;;;;;;;;8.80;63.40;;;;;;5052739;28;19932;-68
2021/12/13 08:09:52;;;;;;;;;;;8.80;63.40;;;;;;5052686;28;20424;-67
2021/12/13 08:12:22;;;;;;;;;;;8.90;63.60;;;;;;5052772;28;19917;-67
2021/12/13 08:14:49;;;;;;;;;;;8.90;63.60;;;;;;5052612;28;19913;-68
2021/12/13 08:17:18;;;;;;;;;;;8.90;63.60;;;;;;5052836;28;19913;-68
2021/12/13 08:19:44;;;;;;;;;;;8.90;63.50;;;;;;5052699;28;19999;-67
2021/12/13 08:22:12;;;;;;;;;;;9.00;63.50;;;;;;5052673;28;19915;-67
2021/12/13 08:24:45;;;;;;;;;;;9.00;63.40;;;;;;5052455;28;19996;-67
2021/12/13 08:27:16;;;;;;;;;;;9.00;63.40;;;;;;5052635;28;19982;-67
2021/12/13 08:29:42;;;;;;;;;;;9.00;63.50;;;;;;5052698;28;19909;-67
2021/12/13 08:32:11;;;;;;;;;;;9.00;63.50;;;;;;5052570;28;19916;-67
2021/12/13 08:34:57;;;;;;;;;;;9.00;63.40;;;;;;5052250;28;19939;-67
2021/12/13 08:37:24;;;;;;;;;;;9.00;63.30;;;;;;5051922;28;19908;-67
2021/12/13 08:39:52;;;;;;;;;;;9.10;63.40;;;;;;5052234;28;19920;-67
2021/12/13 08:42:19;;;;;;;;;;;9.10;63.40;;;;;;5052062;28;19915;-68
2021/12/13 08:44:51;;;;;;;;;;;9.10;63.50;;;;;;5052400;28;19909;-68
2021/12/13 08:47:19;;;;;;;;;;;9.10;63.50;;;;;;5052213;28;19951;-68
2021/12/13 08:49:44;;;;;;;;;;;9.10;63.40;;;;;;5052258;28;19909;-68
2021/12/13 08:52:13;;;;;;;;;;;9.20;63.50;;;;;;5052171;28;20351;-68
2021/12/13 08:54:41;;;;;;;;;;;9.20;63.50;;;;;;5052232;28;19909;-67
2021/12/13 08:57:09;;;;;;;;;;;9.20;63.40;;;;;;5067933;28;20282;-68
2021/12/13 08:59:35;;;;;;;;;;;9.20;63.40;;;;;;5052077;28;19916;-68
2021/12/13 09:02:04;;;;;;;;;;;9.20;63.30;;;;;;5051855;28;19908;-68
2021/12/13 09:04:38;;;;;;;;;;;9.20;63.30;;;;;;5051813;28;19909;-68
2021/12/13 09:07:05;;;;;;;;;;;9.20;63.30;;;;;;5051887;28;19919;-68
2021/12/13 09:09:31;;;;;;;;;;;9.30;63.40;;;;;;5052048;28;20499;-67
2021/12/13 09:11:58;;;;;;;;;;;9.30;63.50;;;;;;5051951;28;19955;-67
2021/12/13 09:14:38;;;;;;;;;;;9.30;63.50;;;;;;5051948;28;19909;-67
2021/12/13 09:17:16;;;;;;;;;;;9.40;63.40;;;;;;5051628;28;19944;-67
2021/12/13 09:19:44;;;;;;;;;;;9.40;63.40;;;;;;5051861;28;19915;-67
2021/12/13 09:22:09;;;;;;;;;;;9.40;63.30;;;;;;5051973;28;19916;-68
2021/12/13 09:24:39;;;;;;;;;;;9.40;63.20;;;;;;5051741;28;19909;-67
2021/12/13 09:27:10;;;;;;;;;;;9.40;63.10;;;;;;5051726;28;19909;-68
2021/12/13 09:30:08;;;;;;;;;;;9.40;63.90;;;;;;5051813;28;20374;-67
2021/12/13 09:32:45;;;;;;;;;;;9.40;63.30;;;;;;5049316;28;19912;-67
2021/12/13 09:35:29;;;;;;;;;;;9.40;63.20;;;;;;5069286;28;19909;-67
2021/12/13 09:37:58;;;;;;;;;;;9.50;63.30;;;;;;5069168;28;19909;-67
2021/12/13 09:40:29;;;;;;;;;;;9.50;63.30;;;;;;5069372;28;19999;-67
2021/12/13 09:42:56;;;;;;;;;;;9.50;63.20;;;;;;5069135;28;19912;-67
2021/12/13 09:45:25;;;;;;;;;;;9.50;63.20;;;;;;5069381;28;19904;-67
2021/12/13 09:47:51;;;;;;;;;;;9.50;63.20;;;;;;5069235;28;19916;-67
2021/12/13 09:50:19;;;;;;;;;;;9.50;63.30;;;;;;5069280;28;20625;-67
2021/12/13 09:52:49;;;;;;;;;;;9.50;63.10;;;;;;5070105;28;19919;-68
2021/12/13 09:55:30;;;;;;;;;;;9.50;63.30;;;;;;5073132;28;20058;-67
2021/12/13 09:57:56;;;;;;;;;;;9.60;63.30;;;;;;5073090;28;20002;-67
2021/12/13 10:00:25;;;;;;;;;;;9.60;63.20;;;;;;5072946;28;19913;-67
2021/12/13 10:02:53;;;;;;;;;;;9.60;63.30;;;;;;5072738;28;20392;-67
2021/12/13 10:05:22;;;;;;;;;;;9.60;63.40;;;;;;5056179;28;19908;-67
2021/12/13 10:07:53;;;;;;;;;;;9.70;63.50;;;;;;5066531;28;20009;-67
2021/12/13 10:10:23;;;;;;;;;;;9.80;63.50;;;;;;5055123;28;19905;-67
2021/12/13 10:12:51;;;;;;;;;;;9.80;63.40;;;;;;5055229;28;19909;-67
2021/12/13 10:15:23;;;;;;;;;;;9.80;63.30;;;;;;5054857;28;20004;-67
2021/12/13 10:17:51;;;;;;;;;;;9.80;63.10;;;;;;5055101;28;19939;-67
2021/12/13 10:20:19;;;;;;;;;;;9.80;63.10;;;;;;5054860;28;19912;-67
2021/12/13 10:22:45;;;;;;;;;;;9.90;63.10;;;;;;5054885;28;19909;-67
2021/12/13 10:25:19;;;;;;;;;;;9.90;63.00;;;;;;5054824;28;19951;-67
2021/12/13 10:27:45;;;;;;;;;;;9.90;63.10;;;;;;5054813;28;19909;-67
2021/12/13 10:30:13;;;;;;;;;;;10.00;63.20;;;;;;5054742;28;19905;-67
2021/12/13 10:32:40;;;;;;;;;;;10.00;63.20;;;;;;5054459;28;19912;-67
2021/12/13 10:35:14;;;;;;;;;;;10.00;62.90;;;;;;5054522;28;19912;-67
2021/12/13 10:37:43;;;;;;;;;;;10.00;62.80;;;;;;5054603;28;20343;-67
2021/12/13 10:40:13;;;;;;;;;;;10.10;62.80;;;;;;5054604;28;19913;-68
2021/12/13 10:42:41;;;;;;;;;;;10.10;62.80;;;;;;5054582;28;19952;-68
2021/12/13 10:45:14;;;;;;;;;;;10.10;62.80;;;;;;5054520;28;20018;-68
2021/12/13 10:47:42;;;;;;;;;;;10.20;62.70;;;;;;5054782;28;20366;-68
2021/12/13 10:50:10;;;;;;;;;;;10.20;62.70;;;;;;5054420;28;19916;-67
2021/12/13 10:52:37;;;;;;;;;;;10.20;62.60;;;;;;5054492;28;19915;-67
2021/12/13 10:55:16;;;;;;;;;;;10.20;62.60;;;;;;5054714;28;19905;-67
2021/12/13 10:57:44;;;;;;;;;;;10.30;62.70;;;;;;5054379;28;20274;-67
2021/12/13 11:00:15;;;;;;;;;;;10.30;62.70;;;;;;5054154;28;19912;-67
2021/12/13 11:02:41;;;;;;;;;;;10.30;62.60;;;;;;5054100;28;19913;-67
2021/12/13 11:05:14;;;;;;;;;;;10.40;62.60;;;;;;5053638;28;20312;-67
2021/12/13 11:07:40;;;;;;;;;;;10.40;62.50;;;;;;5054018;28;20004;-68
2021/12/13 11:10:08;;;;;;;;;;;10.40;62.40;;;;;;5054070;28;20341;-68
2021/12/13 11:12:36;;;;;;;;;;;10.40;62.20;;;;;;5053876;28;19909;-68
2021/12/13 11:15:06;;;;;;;;;;;10.40;62.00;;;;;;5053667;28;19944;-67
2021/12/13 11:17:33;;;;;;;;;;;10.40;61.80;;;;;;5053892;28;19909;-68
2021/12/13 11:20:06;;;;;;;;;;;10.30;61.70;;;;;;5053731;28;19925;-67
2021/12/13 11:22:32;;;;;;;;;;;10.30;61.80;;;;;;5069230;28;19915;-67
2021/12/13 11:25:05;;;;;;;;;;;10.30;61.90;;;;;;5053652;28;20019;-67
2021/12/13 11:27:32;;;;;;;;;;;10.30;61.90;;;;;;5053739;28;19909;-67
2021/12/13 11:29:59;;;;;;;;;;;10.30;62.00;;;;;;5053545;28;19912;-67
2021/12/13 11:32:24;;;;;;;;;;;10.40;62.10;;;;;;5056457;28;20294;-68
2021/12/13 11:35:11;;;;;;;;;;;10.40;62.10;;;;;;5062824;28;19905;-67
2021/12/13 11:37:55;;;;;;;;;;;10.40;62.00;;;;;;5062934;28;20354;-66
2021/12/13 11:40:34;;;;;;;;;;;10.40;61.80;;;;;;5068716;28;19920;-66
2021/12/13 11:43:19;;;;;;;;;;;10.40;61.70;;;;;;5053392;28;20410;-66
2021/12/13 11:46:03;;;;;;;;;;;10.40;61.70;;;;;;5053126;28;19912;-66
2021/12/13 11:48:47;;;;;;;;;;;10.30;61.50;;;;;;5053141;28;19962;-66
2021/12/13 11:51:31;;;;;;;;;;;10.30;61.40;;;;;;5053168;28;20353;-66
2021/12/13 11:54:15;;;;;;;;;;;10.40;61.70;;;;;;5053000;28;20013;-66
2021/12/13 11:56:56;;;;;;;;;;;10.40;61.80;;;;;;5055552;28;20289;-67
2021/12/13 11:59:30;;;;;;;;;;;10.40;61.80;;;;;;5062639;28;19913;-66
2021/12/13 12:02:03;;;;;;;;;;;10.50;61.70;;;;;;5068612;28;19916;-68
2021/12/13 12:04:47;;;;;;;;;;;10.50;61.70;;;;;;5072880;28;19909;-66
2021/12/13 12:07:13;;;;;;;;;;;10.50;61.60;;;;;;5072971;28;19909;-67
2021/12/13 12:09:47;;;;;;;;;;;10.60;61.50;;;;;;5072841;28;19916;-66
2021/12/13 12:12:31;;;;;;;;;;;10.60;61.40;;;;;;5070982;28;19912;-66
2021/12/13 12:15:01;;;;;;;;;;;10.60;61.30;;;;;;5066430;28;19981;-66
2021/12/13 12:17:28;;;;;;;;;;;10.60;62.20;;;;;;5070956;28;19920;-67
2021/12/13 12:19:54;;;;;;;;;;;10.60;61.40;;;;;;5061364;28;19916;-68
2021/12/13 12:22:20;;;;;;;;;;;10.70;61.30;;;;;;5072643;28;20278;-68
2021/12/13 12:24:46;;;;;;;;;;;10.70;61.10;;;;;;5064673;28;20313;-68
2021/12/13 12:27:15;;;;;;;;;;;10.70;61.10;;;;;;5065591;28;20074;-68
2021/12/13 12:29:44;;;;;;;;;;;10.70;61.20;;;;;;5066095;28;19917;-67
2021/12/13 12:32:29;;;;;;;;;;;10.70;61.10;;;;;;5071919;28;19916;-67
2021/12/13 12:35:13;;;;;;;;;;;10.70;61.10;;;;;;5056317;28;19909;-66
2021/12/13 12:37:57;;;;;;;;;;;10.80;61.10;;;;;;5060291;28;19920;-67
2021/12/13 12:40:35;;;;;;;;;;;10.80;61.20;;;;;;5059670;28;20043;-66
2021/12/13 12:43:02;;;;;;;;;;;10.90;61.40;;;;;;5059122;28;20374;-67
2021/12/13 12:45:33;;;;;;;;;;;11.00;61.10;;;;;;5060445;28;19920;-67
2021/12/13 12:47:59;;;;;;;;;;;11.00;60.70;;;;;;5054751;28;19978;-67
2021/12/13 12:50:53;;;;;;;;;;;11.00;60.40;;;;;;5054429;28;20370;-67
2021/12/13 12:53:31;;;;;;;;;;;11.00;60.50;;;;;;5069905;28;19908;-67
2021/12/13 12:55:59;;;;;;;;;;;11.00;60.50;;;;;;5072041;28;19932;-66
2021/12/13 12:58:27;;;;;;;;;;;11.10;61.10;;;;;;5071908;28;19909;-67
2021/12/13 13:00:54;;;;;;;;;;;11.10;60.50;;;;;;5071813;28;19916;-67
2021/12/13 13:03:21;;;;;;;;;;;11.10;60.20;;;;;;5061712;28;19916;-66
2021/12/13 13:05:47;;;;;;;;;;;11.10;60.10;;;;;;5055210;28;19956;-66
2021/12/13 13:08:25;;;;;;;;;;;11.10;60.10;;;;;;5065950;28;20258;-66
2021/12/13 13:10:53;;;;;;;;;;;11.10;60.00;;;;;;5069752;28;19915;-66
2021/12/13 13:13:18;;;;;;;;;;;11.10;60.10;;;;;;5051803;28;20317;-67
2021/12/13 13:15:49;;;;;;;;;;;11.10;60.20;;;;;;5051450;28;19916;-66
2021/12/13 13:18:22;;;;;;;;;;;11.10;60.10;;;;;;5051784;28;20341;-67
2021/12/13 13:20:53;;;;;;;;;;;11.10;60.00;;;;;;5066392;28;20004;-67
2021/12/13 13:23:20;;;;;;;;;;;11.10;59.90;;;;;;5067648;28;19916;-66
2021/12/13 13:25:48;;;;;;;;;;;11.10;59.80;;;;;;5051809;28;19913;-65
2021/12/13 13:28:34;;;;;;;;;;;11.00;59.80;;;;;;5052782;28;19970;-66
2021/12/13 13:31:12;;;;;;;;;;;11.00;59.80;;;;;;5060554;28;19927;-66
2021/12/13 13:33:41;;;;;;;;;;;11.00;59.70;;;;;;5067628;28;19909;-67
2021/12/13 13:36:08;;;;;;;;;;;11.00;59.80;;;;;;5061634;28;19913;-66
2021/12/13 13:38:34;;;;;;;;;;;11.00;59.70;;;;;;5064062;28;20362;-66
2021/12/13 13:40:59;;;;;;;;;;;11.00;59.70;;;;;;5063306;28;19945;-67
2021/12/13 13:43:30;;;;;;;;;;;10.90;59.50;;;;;;5055224;28;19919;-66
2021/12/13 13:45:57;;;;;;;;;;;10.90;59.60;;;;;;5059205;28;20278;-66
2021/12/13 13:48:28;;;;;;;;;;;10.90;59.60;;;;;;5075425;28;19912;-67
2021/12/13 13:50:55;;;;;;;;;;;10.90;59.60;;;;;;5074138;28;20259;-66
2021/12/13 13:53:26;;;;;;;;;;;10.90;59.70;;;;;;5075429;28;19909;-66
2021/12/13 13:55:54;;;;;;;;;;;10.90;59.70;;;;;;5059330;28;19911;-66
2021/12/13 13:58:25;;;;;;;;;;;10.80;59.50;;;;;;5055352;28;19913;-67
2021/12/13 14:00:54;;;;;;;;;;;10.80;59.50;;;;;;5056240;28;20000;-66
2021/12/13 14:03:23;;;;;;;;;;;10.80;59.50;;;;;;5054682;28;20264;-67
2021/12/13 14:05:54;;;;;;;;;;;10.80;59.50;;;;;;5071218;28;20379;-66
2021/12/13 14:08:24;;;;;;;;;;;10.70;59.60;;;;;;5063295;28;19913;-66
2021/12/13 14:10:50;;;;;;;;;;;10.70;59.50;;;;;;5071268;28;19909;-67
2021/12/13 14:13:16;;;;;;;;;;;10.70;59.50;;;;;;5068407;28;19920;-67
2021/12/13 14:15:44;;;;;;;;;;;10.60;59.50;;;;;;5060616;28;19987;-67
2021/12/13 14:18:15;;;;;;;;;;;10.60;59.50;;;;;;5065775;28;19981;-66
2021/12/13 14:20:46;;;;;;;;;;;10.60;59.60;;;;;;5074810;28;19952;-67
2021/12/13 14:23:12;;;;;;;;;;;10.60;59.70;;;;;;5074702;28;19931;-67
2021/12/13 14:25:38;;;;;;;;;;;10.60;59.80;;;;;;5073200;28;19912;-67
2021/12/13 14:28:05;;;;;;;;;;;10.60;59.80;;;;;;5054891;28;19908;-67
2021/12/13 14:30:42;;;;;;;;;;;10.50;59.80;;;;;;5054681;28;19913;-66
2021/12/13 14:33:20;;;;;;;;;;;10.50;59.80;;;;;;5054418;28;19917;-67
2021/12/13 14:35:52;;;;;;;;;;;10.60;59.80;;;;;;5054611;28;19913;-67
2021/12/13 14:38:17;;;;;;;;;;;10.50;59.80;;;;;;5053984;28;19913;-67
2021/12/13 14:40:45;;;;;;;;;;;10.50;59.80;;;;;;5054456;28;19919;-67
2021/12/13 14:43:20;;;;;;;;;;;10.50;59.80;;;;;;5053283;28;19920;-67
2021/12/13 14:45:46;;;;;;;;;;;10.40;59.80;;;;;;5069160;28;19908;-67
2021/12/13 14:48:15;;;;;;;;;;;10.40;59.70;;;;;;5074675;28;19909;-66
2021/12/13 14:50:46;;;;;;;;;;;10.30;59.70;;;;;;5074470;28;19909;-66
2021/12/13 14:53:19;;;;;;;;;;;10.30;59.70;;;;;;5072244;28;20350;-68
2021/12/13 14:55:46;;;;;;;;;;;10.30;59.70;;;;;;5059321;28;19969;-66
2021/12/13 14:58:14;;;;;;;;;;;10.20;59.80;;;;;;5055007;28;19966;-67
2021/12/13 15:00:45;;;;;;;;;;;10.20;59.90;;;;;;5065201;28;19928;-66